sensor_id;sensor_type;location;lat;lon;timestamp;pressure;altitude;pressure_sealevel;temperature;humidity
5777;BME280;2914;42.668;23.346;2023-01-30T00:01:35;94758.90;;;0.73;92.75
5777;BME280;2914;42.668;23.346;2023-01-30T00:04:05;94755.62;;;0.78;92.38
5777;BME280;2914;42.668;23.346;2023-01-30T00:09:13;94739.28;;;0.67;92.66
5777;BME280;2914;42.668;23.346;2023-01-30T00:11:42;94748.47;;;0.57;92.97
5777;BME280;2914;42.668;23.346;2023-01-30T00:14:11;94742.20;;;0.61;93.34
5777;BME280;2914;42.668;23.346;2023-01-30T00:16:40;94745.41;;;0.57;93.47
5777;BME280;2914;42.668;23.346;2023-01-30T00:19:10;94739.05;;;0.63;93.18
5777;BME280;2914;42.668;23.346;2023-01-30T00:21:39;94747.25;;;0.55;93.27
5777;BME280;2914;42.668;23.346;2023-01-30T00:24:08;94749.83;;;0.46;93.98
5777;BME280;2914;42.668;23.346;2023-01-30T00:26:38;94749.91;;;0.45;94.20
5777;BME280;2914;42.668;23.346;2023-01-30T00:31:44;94747.78;;;0.44;94.51
5777;BME280;2914;42.668;23.346;2023-01-30T00:34:13;94742.20;;;0.43;94.73
5777;BME280;2914;42.668;23.346;2023-01-30T00:36:42;94749.52;;;0.44;95.14
5777;BME280;2914;42.668;23.346;2023-01-30T00:39:11;94739.22;;;0.42;95.49
5777;BME280;2914;42.668;23.346;2023-01-30T00:41:41;94745.09;;;0.28;96.11
5777;BME280;2914;42.668;23.346;2023-01-30T00:44:28;94739.23;;;0.25;96.54
5777;BME280;2914;42.668;23.346;2023-01-30T00:47:15;94730.66;;;0.31;97.06
5777;BME280;2914;42.668;23.346;2023-01-30T00:49:44;94726.84;;;0.30;96.76
5777;BME280;2914;42.668;23.346;2023-01-30T00:52:13;94730.90;;;0.27;96.88
5777;BME280;2914;42.668;23.346;2023-01-30T00:54:42;94727.33;;;0.21;97.18
5777;BME280;2914;42.668;23.346;2023-01-30T00:57:11;94724.94;;;0.16;97.61
5777;BME280;2914;42.668;23.346;2023-01-30T01:02:17;94725.61;;;0.11;97.98
5777;BME280;2914;42.668;23.346;2023-01-30T01:04:46;94707.09;;;0.19;97.61
5777;BME280;2914;42.668;23.346;2023-01-30T01:07:15;94725.93;;;0.05;97.95
5777;BME280;2914;42.668;23.346;2023-01-30T01:12:22;94725.61;;;0.11;97.79
5777;BME280;2914;42.668;23.346;2023-01-30T01:14:51;94723.41;;;0.12;97.89
5777;BME280;2914;42.668;23.346;2023-01-30T01:17:21;94718.61;;;0.04;98.17
5777;BME280;2914;42.668;23.346;2023-01-30T01:19:50;94716.72;;;0.16;98.06
5777;BME280;2914;42.668;23.346;2023-01-30T01:22:19;94712.43;;;0.24;97.43
5777;BME280;2914;42.668;23.346;2023-01-30T01:24:48;94707.08;;;0.27;97.04
5777;BME280;2914;42.668;23.346;2023-01-30T01:27:17;94704.42;;;0.11;97.31
5777;BME280;2914;42.668;23.346;2023-01-30T01:29:46;94690.00;;;0.06;97.98
5777;BME280;2914;42.668;23.346;2023-01-30T01:32:16;94697.27;;;0.16;97.25
5777;BME280;2914;42.668;23.346;2023-01-30T01:34:47;94699.62;;;0.12;97.37
5777;BME280;2914;42.668;23.346;2023-01-30T01:37:15;94697.56;;;0.28;97.45
5777;BME280;2914;42.668;23.346;2023-01-30T01:39:44;94700.99;;;0.20;97.09
5777;BME280;2914;42.668;23.346;2023-01-30T01:45:18;94695.94;;;0.52;96.72
5777;BME280;2914;42.668;23.346;2023-01-30T01:47:55;94707.14;;;0.52;95.95
5777;BME280;2914;42.668;23.346;2023-01-30T01:50:26;94701.13;;;0.52;95.12
5777;BME280;2914;42.668;23.346;2023-01-30T01:52:58;94710.06;;;0.46;94.86
5777;BME280;2914;42.668;23.346;2023-01-30T01:55:29;94698.92;;;0.53;94.82
5777;BME280;2914;42.668;23.346;2023-01-30T01:58:01;94706.48;;;0.31;95.00
5777;BME280;2914;42.668;23.346;2023-01-30T02:00:32;94708.78;;;0.37;95.34
5777;BME280;2914;42.668;23.346;2023-01-30T02:03:03;94700.53;;;0.38;95.46
5777;BME280;2914;42.668;23.346;2023-01-30T02:05:36;94704.73;;;0.40;95.38
5777;BME280;2914;42.668;23.346;2023-01-30T02:08:07;94713.66;;;0.35;95.11
5777;BME280;2914;42.668;23.346;2023-01-30T02:10:40;94708.23;;;0.22;95.14
5777;BME280;2914;42.668;23.346;2023-01-30T02:13:10;94706.23;;;0.36;95.24
5777;BME280;2914;42.668;23.346;2023-01-30T02:15:39;94706.19;;;0.37;94.90
5777;BME280;2914;42.668;23.346;2023-01-30T02:18:08;94705.04;;;0.43;94.77
5777;BME280;2914;42.668;23.346;2023-01-30T02:23:50;94700.28;;;0.42;94.78
5777;BME280;2914;42.668;23.346;2023-01-30T02:26:51;94706.34;;;0.43;94.53
5777;BME280;2914;42.668;23.346;2023-01-30T02:35:27;94699.38;;;0.26;95.40
5777;BME280;2914;42.668;23.346;2023-01-30T02:38:00;94702.07;;;0.33;94.64
5777;BME280;2914;42.668;23.346;2023-01-30T02:40:39;94698.23;;;0.31;93.88
5777;BME280;2914;42.668;23.346;2023-01-30T02:45:49;94694.28;;;0.33;93.29
5777;BME280;2914;42.668;23.346;2023-01-30T02:48:21;94688.70;;;0.32;93.45
5777;BME280;2914;42.668;23.346;2023-01-30T02:50:54;94685.95;;;0.35;93.23
5777;BME280;2914;42.668;23.346;2023-01-30T02:53:24;94678.71;;;0.33;93.44
5777;BME280;2914;42.668;23.346;2023-01-30T02:55:53;94689.22;;;0.47;93.34
5777;BME280;2914;42.668;23.346;2023-01-30T02:58:23;94689.67;;;0.56;92.92
5777;BME280;2914;42.668;23.346;2023-01-30T03:01:04;94685.86;;;0.54;92.57
5777;BME280;2914;42.668;23.346;2023-01-30T03:03:40;94698.70;;;0.48;92.40
5777;BME280;2914;42.668;23.346;2023-01-30T03:06:24;94697.91;;;0.64;92.23
5777;BME280;2914;42.668;23.346;2023-01-30T03:11:37;94701.50;;;0.70;91.71
5777;BME280;2914;42.668;23.346;2023-01-30T03:14:10;94695.00;;;0.61;91.29
5777;BME280;2914;42.668;23.346;2023-01-30T03:16:42;94687.98;;;0.63;91.26
5777;BME280;2914;42.668;23.346;2023-01-30T03:19:13;94679.42;;;0.61;90.83
5777;BME280;2914;42.668;23.346;2023-01-30T03:21:43;94681.05;;;0.46;90.62
5777;BME280;2914;42.668;23.346;2023-01-30T03:24:13;94680.30;;;0.27;91.02
5777;BME280;2914;42.668;23.346;2023-01-30T03:26:45;94666.86;;;0.27;91.41
5777;BME280;2914;42.668;23.346;2023-01-30T03:29:16;94658.25;;;0.27;91.49
5777;BME280;2914;42.668;23.346;2023-01-30T03:31:46;94657.70;;;0.38;91.42
5777;BME280;2914;42.668;23.346;2023-01-30T03:34:14;94658.16;;;0.46;90.72
5777;BME280;2914;42.668;23.346;2023-01-30T03:36:44;94655.42;;;0.40;90.49
5777;BME280;2914;42.668;23.346;2023-01-30T03:39:14;94653.73;;;0.39;90.66
5777;BME280;2914;42.668;23.346;2023-01-30T03:41:43;94651.31;;;0.19;91.18
5777;BME280;2914;42.668;23.346;2023-01-30T03:44:12;94650.61;;;0.32;91.23
5777;BME280;2914;42.668;23.346;2023-01-30T03:46:41;94650.83;;;0.37;91.31
5777;BME280;2914;42.668;23.346;2023-01-30T03:49:10;94647.70;;;0.30;90.72
5777;BME280;2914;42.668;23.346;2023-01-30T03:51:40;94655.05;;;0.13;91.63
5777;BME280;2914;42.668;23.346;2023-01-30T03:54:09;94646.59;;;0.01;92.77
5777;BME280;2914;42.668;23.346;2023-01-30T03:56:38;94650.48;;;0.01;93.79
5777;BME280;2914;42.668;23.346;2023-01-30T03:59:10;94647.95;;;0.08;94.27
5777;BME280;2914;42.668;23.346;2023-01-30T04:01:39;94647.11;;;-0.02;94.01
5777;BME280;2914;42.668;23.346;2023-01-30T04:04:08;94648.17;;;-0.06;94.34
5777;BME280;2914;42.668;23.346;2023-01-30T04:06:37;94641.09;;;-0.02;94.53
5777;BME280;2914;42.668;23.346;2023-01-30T04:09:06;94637.98;;;0.00;94.57
5777;BME280;2914;42.668;23.346;2023-01-30T04:11:35;94637.35;;;0.04;94.57
5777;BME280;2914;42.668;23.346;2023-01-30T04:14:04;94626.54;;;0.04;95.02
5777;BME280;2914;42.668;23.346;2023-01-30T04:16:33;94630.88;;;-0.05;95.38
5777;BME280;2914;42.668;23.346;2023-01-30T04:19:02;94643.91;;;-0.15;95.54
5777;BME280;2914;42.668;23.346;2023-01-30T04:21:31;94646.89;;;-0.23;96.21
5777;BME280;2914;42.668;23.346;2023-01-30T04:24:00;94640.95;;;-0.16;96.37
5777;BME280;2914;42.668;23.346;2023-01-30T04:26:29;94639.73;;;-0.09;96.24
5777;BME280;2914;42.668;23.346;2023-01-30T04:31:36;94639.12;;;0.03;95.84
5777;BME280;2914;42.668;23.346;2023-01-30T04:34:05;94645.66;;;-0.07;95.68
5777;BME280;2914;42.668;23.346;2023-01-30T04:36:34;94641.09;;;-0.02;95.73
5777;BME280;2914;42.668;23.346;2023-01-30T04:39:04;94641.92;;;-0.02;95.74
5777;BME280;2914;42.668;23.346;2023-01-30T04:41:33;94633.93;;;0.03;95.72
5777;BME280;2914;42.668;23.346;2023-01-30T04:44:02;94642.39;;;0.15;95.47
5777;BME280;2914;42.668;23.346;2023-01-30T04:46:31;94633.84;;;0.22;95.14
5777;BME280;2914;42.668;23.346;2023-01-30T04:49:00;94635.45;;;0.25;94.96
5777;BME280;2914;42.668;23.346;2023-01-30T04:51:29;94614.33;;;1.30;100.00
5777;BME280;2914;42.668;23.346;2023-01-30T04:53:59;94621.31;;;0.89;100.00
5777;BME280;2914;42.668;23.346;2023-01-30T04:59:05;94619.16;;;0.72;95.02
5777;BME280;2914;42.668;23.346;2023-01-30T05:04:13;94619.97;;;0.57;94.77
5777;BME280;2914;42.668;23.346;2023-01-30T05:06:42;94619.33;;;0.27;94.89
5777;BME280;2914;42.668;23.346;2023-01-30T05:09:11;94622.69;;;0.20;95.92
5777;BME280;2914;42.668;23.346;2023-01-30T05:11:40;94610.86;;;0.32;96.19
5777;BME280;2914;42.668;23.346;2023-01-30T05:14:09;94609.56;;;0.32;95.65
5777;BME280;2914;42.668;23.346;2023-01-30T05:16:38;94619.94;;;0.23;96.30
5777;BME280;2914;42.668;23.346;2023-01-30T05:19:08;94618.98;;;0.08;96.64
5777;BME280;2914;42.668;23.346;2023-01-30T05:21:38;94619.50;;;-0.11;97.99
5777;BME280;2914;42.668;23.346;2023-01-30T05:26:45;94626.77;;;0.08;98.39
5777;BME280;2914;42.668;23.346;2023-01-30T05:29:15;94629.66;;;-0.07;98.36
5777;BME280;2914;42.668;23.346;2023-01-30T05:31:44;94630.70;;;0.07;98.36
5777;BME280;2914;42.668;23.346;2023-01-30T05:34:13;94636.13;;;0.20;97.92
5777;BME280;2914;42.668;23.346;2023-01-30T05:36:42;94632.09;;;0.14;97.89
5777;BME280;2914;42.668;23.346;2023-01-30T05:39:11;94627.61;;;0.00;98.34
5777;BME280;2914;42.668;23.346;2023-01-30T05:41:40;94630.95;;;0.02;98.50
5777;BME280;2914;42.668;23.346;2023-01-30T05:44:09;94623.86;;;0.06;98.70
5777;BME280;2914;42.668;23.346;2023-01-30T05:46:38;94630.34;;;0.06;98.81
5777;BME280;2914;42.668;23.346;2023-01-30T05:49:08;94631.09;;;0.08;99.07
5777;BME280;2914;42.668;23.346;2023-01-30T05:51:37;94634.83;;;0.11;98.98
5777;BME280;2914;42.668;23.346;2023-01-30T05:54:06;94630.49;;;0.11;99.29
5777;BME280;2914;42.668;23.346;2023-01-30T05:56:35;94639.19;;;0.10;99.35
5777;BME280;2914;42.668;23.346;2023-01-30T05:59:04;94639.09;;;0.29;99.10
5777;BME280;2914;42.668;23.346;2023-01-30T06:01:33;94637.89;;;0.10;99.10
5777;BME280;2914;42.668;23.346;2023-01-30T06:06:40;94641.53;;;0.15;99.22
5777;BME280;2914;42.668;23.346;2023-01-30T06:11:46;94644.00;;;-0.08;100.00
5777;BME280;2914;42.668;23.346;2023-01-30T06:16:53;94631.32;;;0.12;100.00
5777;BME280;2914;42.668;23.346;2023-01-30T06:21:59;94636.59;;;0.10;100.00
5777;BME280;2914;42.668;23.346;2023-01-30T06:24:29;94631.94;;;-0.01;100.00
5777;BME280;2914;42.668;23.346;2023-01-30T06:26:59;94632.92;;;-0.03;100.00
5777;BME280;2914;42.668;23.346;2023-01-30T06:29:28;94633.23;;;-0.01;100.00
5777;BME280;2914;42.668;23.346;2023-01-30T06:31:57;94614.38;;;1.05;100.00
5777;BME280;2914;42.668;23.346;2023-01-30T06:37:04;94616.18;;;1.12;100.00
5777;BME280;2914;42.668;23.346;2023-01-30T06:39:33;94623.12;;;0.95;100.00
5777;BME280;2914;42.668;23.346;2023-01-30T06:42:02;94627.20;;;0.83;100.00
5777;BME280;2914;42.668;23.346;2023-01-30T06:44:31;94628.41;;;0.69;99.83
5777;BME280;2914;42.668;23.346;2023-01-30T06:47:00;94637.92;;;0.53;98.96
5777;BME280;2914;42.668;23.346;2023-01-30T06:49:29;94624.00;;;0.29;98.62
5777;BME280;2914;42.668;23.346;2023-01-30T06:51:58;94635.74;;;0.19;99.10
5777;BME280;2914;42.668;23.346;2023-01-30T06:54:27;94633.14;;;0.36;99.06
5777;BME280;2914;42.668;23.346;2023-01-30T06:56:56;94641.77;;;0.19;99.10
5777;BME280;2914;42.668;23.346;2023-01-30T06:59:25;94637.82;;;0.21;99.01
5777;BME280;2914;42.668;23.346;2023-01-30T07:01:54;94639.84;;;0.40;100.00
5777;BME280;2914;42.668;23.346;2023-01-30T07:04:23;94646.34;;;0.40;99.61
5777;BME280;2914;42.668;23.346;2023-01-30T07:09:23;94641.16;;;0.23;98.93
5777;BME280;2914;42.668;23.346;2023-01-30T07:11:52;94647.58;;;0.15;99.41
5777;BME280;2914;42.668;23.346;2023-01-30T07:14:20;94646.83;;;-0.04;99.84
5777;BME280;2914;42.668;23.346;2023-01-30T07:16:50;94651.78;;;-0.08;100.00
5777;BME280;2914;42.668;23.346;2023-01-30T07:19:19;94655.21;;;-0.16;100.00
5777;BME280;2914;42.668;23.346;2023-01-30T07:21:48;94653.45;;;-0.16;100.00
5777;BME280;2914;42.668;23.346;2023-01-30T07:24:17;94655.12;;;-0.06;100.00
5777;BME280;2914;42.668;23.346;2023-01-30T07:26:48;94653.16;;;0.16;100.00
5777;BME280;2914;42.668;23.346;2023-01-30T07:31:55;94656.81;;;0.21;100.00
5777;BME280;2914;42.668;23.346;2023-01-30T07:34:24;94657.28;;;0.21;100.00
5777;BME280;2914;42.668;23.346;2023-01-30T07:36:53;94660.31;;;0.20;99.69
5777;BME280;2914;42.668;23.346;2023-01-30T07:39:22;94667.94;;;0.23;98.79
5777;BME280;2914;42.668;23.346;2023-01-30T07:41:52;94673.80;;;0.36;98.48
5777;BME280;2914;42.668;23.346;2023-01-30T07:44:21;94669.98;;;0.52;97.87
5777;BME280;2914;42.668;23.346;2023-01-30T07:46:50;94670.37;;;0.53;97.14
5777;BME280;2914;42.668;23.346;2023-01-30T07:49:19;94667.71;;;0.45;96.86
5777;BME280;2914;42.668;23.346;2023-01-30T07:51:48;94668.84;;;0.48;96.77
5777;BME280;2914;42.668;23.346;2023-01-30T07:54:17;94668.98;;;0.54;96.57
5777;BME280;2914;42.668;23.346;2023-01-30T07:56:46;94664.63;;;0.63;96.42
5777;BME280;2914;42.668;23.346;2023-01-30T07:59:15;94639.34;;;1.56;100.00
5777;BME280;2914;42.668;23.346;2023-01-30T08:01:44;94647.61;;;1.23;100.00
5777;BME280;2914;42.668;23.346;2023-01-30T08:04:13;94644.59;;;1.15;100.00
5777;BME280;2914;42.668;23.346;2023-01-30T08:06:42;94643.20;;;1.16;97.22
5777;BME280;2914;42.668;23.346;2023-01-30T08:09:11;94639.48;;;1.13;94.70
5777;BME280;2914;42.668;23.346;2023-01-30T08:11:40;94636.54;;;1.04;93.50
5777;BME280;2914;42.668;23.346;2023-01-30T08:14:09;94634.33;;;1.05;93.05
5777;BME280;2914;42.668;23.346;2023-01-30T08:16:38;94635.72;;;1.03;93.05
5777;BME280;2914;42.668;23.346;2023-01-30T08:19:07;94634.07;;;1.09;92.90
5777;BME280;2914;42.668;23.346;2023-01-30T08:21:36;94631.86;;;1.10;92.45
5777;BME280;2914;42.668;23.346;2023-01-30T08:24:07;94633.59;;;1.10;92.72
5777;BME280;2914;42.668;23.346;2023-01-30T08:26:36;94633.19;;;1.17;92.42
5777;BME280;2914;42.668;23.346;2023-01-30T08:29:05;94636.79;;;1.15;91.86
5777;BME280;2914;42.668;23.346;2023-01-30T08:31:34;94629.50;;;1.22;91.25
5777;BME280;2914;42.668;23.346;2023-01-30T08:34:03;94626.63;;;1.03;90.95
5777;BME280;2914;42.668;23.346;2023-01-30T08:36:32;94621.74;;;0.97;90.89
5777;BME280;2914;42.668;23.346;2023-01-30T08:39:01;94626.63;;;1.03;91.21
5777;BME280;2914;42.668;23.346;2023-01-30T08:41:30;94616.05;;;1.06;90.77
5777;BME280;2914;42.668;23.346;2023-01-30T08:43:59;94619.36;;;1.01;89.83
5777;BME280;2914;42.668;23.346;2023-01-30T08:46:28;94615.63;;;0.98;89.98
5777;BME280;2914;42.668;23.346;2023-01-30T08:48:57;94612.13;;;0.99;90.32
5777;BME280;2914;42.668;23.346;2023-01-30T08:51:26;94608.00;;;1.11;90.32
5777;BME280;2914;42.668;23.346;2023-01-30T08:53:56;94601.73;;;0.99;89.57
5777;BME280;2914;42.668;23.346;2023-01-30T08:56:25;94605.63;;;0.99;87.86
5777;BME280;2914;42.668;23.346;2023-01-30T08:58:54;94601.79;;;0.97;87.29
5777;BME280;2914;42.668;23.346;2023-01-30T09:01:23;94600.26;;;1.02;87.72
5777;BME280;2914;42.668;23.346;2023-01-30T09:03:52;94600.13;;;0.96;87.07
5777;BME280;2914;42.668;23.346;2023-01-30T09:06:21;94594.97;;;1.04;86.20
5777;BME280;2914;42.668;23.346;2023-01-30T09:08:50;94595.98;;;1.01;85.54
5777;BME280;2914;42.668;23.346;2023-01-30T09:11:19;94590.97;;;0.89;85.09
5777;BME280;2914;42.668;23.346;2023-01-30T09:13:48;94589.03;;;0.77;84.91
5777;BME280;2914;42.668;23.346;2023-01-30T09:16:17;94585.91;;;0.79;85.31
5777;BME280;2914;42.668;23.346;2023-01-30T09:18:46;94584.31;;;0.76;85.79
5777;BME280;2914;42.668;23.346;2023-01-30T09:21:16;94585.74;;;0.82;86.67
5777;BME280;2914;42.668;23.346;2023-01-30T09:23:45;94584.05;;;0.81;87.25
5777;BME280;2914;42.668;23.346;2023-01-30T09:26:14;94575.98;;;0.94;87.65
5777;BME280;2914;42.668;23.346;2023-01-30T09:28:43;94586.81;;;0.87;88.32
5777;BME280;2914;42.668;23.346;2023-01-30T09:31:12;94576.48;;;0.85;88.42
5777;BME280;2914;42.668;23.346;2023-01-30T09:33:41;94575.97;;;0.62;89.51
5777;BME280;2914;42.668;23.346;2023-01-30T09:36:10;94583.38;;;0.61;90.38
5777;BME280;2914;42.668;23.346;2023-01-30T09:38:39;94585.48;;;0.71;89.81
5777;BME280;2914;42.668;23.346;2023-01-30T09:47:01;94571.60;;;0.63;91.52
5777;BME280;2914;42.668;23.346;2023-01-30T09:49:34;94568.96;;;0.56;91.54
5777;BME280;2914;42.668;23.346;2023-01-30T09:52:10;94571.73;;;0.53;91.35
5777;BME280;2914;42.668;23.346;2023-01-30T09:57:20;94561.83;;;0.43;92.00
5777;BME280;2914;42.668;23.346;2023-01-30T10:08:31;94548.46;;;0.42;93.85
5777;BME280;2914;42.668;23.346;2023-01-30T10:13:58;94535.78;;;0.29;94.48
5777;BME280;2914;42.668;23.346;2023-01-30T10:16:29;94529.08;;;0.25;94.05
5777;BME280;2914;42.668;23.346;2023-01-30T10:21:53;94517.88;;;0.15;95.28
5777;BME280;2914;42.668;23.346;2023-01-30T10:24:33;94509.73;;;0.06;95.40
5777;BME280;2914;42.668;23.346;2023-01-30T10:27:03;94503.69;;;0.05;95.22
5777;BME280;2914;42.668;23.346;2023-01-30T10:29:36;94502.61;;;0.18;94.40
5777;BME280;2914;42.668;23.346;2023-01-30T10:34:49;94498.80;;;0.41;93.58
5777;BME280;2914;42.668;23.346;2023-01-30T10:37:23;94494.95;;;0.40;92.60
5777;BME280;2914;42.668;23.346;2023-01-30T10:39:55;94489.77;;;0.40;91.68
5777;BME280;2914;42.668;23.346;2023-01-30T10:45:10;94468.02;;;0.26;90.89
5777;BME280;2914;42.668;23.346;2023-01-30T10:50:36;94465.34;;;0.03;91.75
5777;BME280;2914;42.668;23.346;2023-01-30T10:53:08;94456.13;;;-0.03;91.83
5777;BME280;2914;42.668;23.346;2023-01-30T10:55:39;94459.20;;;-0.12;92.06
5777;BME280;2914;42.668;23.346;2023-01-30T10:58:14;94443.95;;;-0.09;91.94
5777;BME280;2914;42.668;23.346;2023-01-30T11:00:47;94440.10;;;-0.02;92.26
5777;BME280;2914;42.668;23.346;2023-01-30T11:06:07;94427.17;;;0.14;92.28
5777;BME280;2914;42.668;23.346;2023-01-30T11:11:24;94412.38;;;0.23;91.41
5777;BME280;2914;42.668;23.346;2023-01-30T11:16:45;94410.30;;;0.30;89.77
5777;BME280;2914;42.668;23.346;2023-01-30T11:19:16;94404.10;;;0.32;89.55
5777;BME280;2914;42.668;23.346;2023-01-30T11:21:49;94397.17;;;0.33;89.13
5777;BME280;2914;42.668;23.346;2023-01-30T11:24:21;94384.46;;;0.52;88.46
5777;BME280;2914;42.668;23.346;2023-01-30T11:26:50;94387.44;;;0.53;87.35
5777;BME280;2914;42.668;23.346;2023-01-30T11:29:29;94378.74;;;0.38;87.71
5777;BME280;2914;42.668;23.346;2023-01-30T11:32:03;94377.77;;;0.47;88.12
5777;BME280;2914;42.668;23.346;2023-01-30T11:34:33;94370.39;;;0.56;87.58
5777;BME280;2914;42.668;23.346;2023-01-30T11:37:14;94368.62;;;0.56;87.15
5777;BME280;2914;42.668;23.346;2023-01-30T11:39:50;94367.20;;;0.74;86.90
5777;BME280;2914;42.668;23.346;2023-01-30T11:42:23;94366.99;;;0.93;86.39
5777;BME280;2914;42.668;23.346;2023-01-30T11:44:57;94355.61;;;1.10;86.19
5777;BME280;2914;42.668;23.346;2023-01-30T11:47:27;94358.05;;;1.13;85.13
5777;BME280;2914;42.668;23.346;2023-01-30T11:49:58;94341.83;;;1.24;84.96
5777;BME280;2914;42.668;23.346;2023-01-30T11:52:30;94341.55;;;1.21;84.86
5777;BME280;2914;42.668;23.346;2023-01-30T11:55:04;94329.95;;;1.27;84.81
5777;BME280;2914;42.668;23.346;2023-01-30T11:57:40;94321.70;;;1.42;83.91
5777;BME280;2914;42.668;23.346;2023-01-30T12:00:16;94325.21;;;1.48;83.47
5777;BME280;2914;42.668;23.346;2023-01-30T12:02:48;94329.58;;;1.55;83.07
5777;BME280;2914;42.668;23.346;2023-01-30T12:05:24;94317.89;;;1.47;82.58
5777;BME280;2914;42.668;23.346;2023-01-30T12:10:39;94301.27;;;1.57;82.62
5777;BME280;2914;42.668;23.346;2023-01-30T12:16:01;94294.20;;;1.66;82.46
5777;BME280;2914;42.668;23.346;2023-01-30T12:18:25;94288.55;;;1.60;81.88
5777;BME280;2914;42.668;23.346;2023-01-30T12:20:57;94285.94;;;1.45;82.39
5777;BME280;2914;42.668;23.346;2023-01-30T12:23:32;94283.44;;;1.44;82.04
5777;BME280;2914;42.668;23.346;2023-01-30T12:26:04;94278.14;;;1.45;81.88
5777;BME280;2914;42.668;23.346;2023-01-30T12:28:36;94274.72;;;1.45;81.70
5777;BME280;2914;42.668;23.346;2023-01-30T12:31:09;94271.84;;;1.42;81.74
5777;BME280;2914;42.668;23.346;2023-01-30T12:33:38;94268.77;;;1.57;81.67
5777;BME280;2914;42.668;23.346;2023-01-30T12:36:14;94257.90;;;1.65;82.14
5777;BME280;2914;42.668;23.346;2023-01-30T12:38:54;94243.02;;;1.67;81.18
5777;BME280;2914;42.668;23.346;2023-01-30T12:41:29;94251.64;;;1.67;80.59
5777;BME280;2914;42.668;23.346;2023-01-30T12:46:59;94243.32;;;1.62;79.79
5777;BME280;2914;42.668;23.346;2023-01-30T12:52:29;94236.72;;;1.64;78.40
5777;BME280;2914;42.668;23.346;2023-01-30T12:55:01;94240.71;;;1.55;78.83
5777;BME280;2914;42.668;23.346;2023-01-30T12:57:35;94229.29;;;1.58;80.49
5777;BME280;2914;42.668;23.346;2023-01-30T13:00:15;94228.17;;;1.69;81.48
5777;BME280;2914;42.668;23.346;2023-01-30T13:02:49;94231.67;;;1.75;79.85
5777;BME280;2914;42.668;23.346;2023-01-30T13:11:16;94222.64;;;1.81;79.19
5777;BME280;2914;42.668;23.346;2023-01-30T13:13:48;94227.42;;;1.67;79.25
5777;BME280;2914;42.668;23.346;2023-01-30T13:16:22;94223.33;;;1.77;79.04
5777;BME280;2914;42.668;23.346;2023-01-30T13:18:54;94219.19;;;1.88;79.10
5777;BME280;2914;42.668;23.346;2023-01-30T13:21:27;94220.80;;;1.76;79.17
5777;BME280;2914;42.668;23.346;2023-01-30T13:24:06;94219.15;;;1.75;79.62
5777;BME280;2914;42.668;23.346;2023-01-30T13:29:14;94211.56;;;1.57;79.63
5777;BME280;2914;42.668;23.346;2023-01-30T13:31:47;94215.94;;;1.57;80.01
5777;BME280;2914;42.668;23.346;2023-01-30T13:34:21;94201.62;;;1.64;80.97
5777;BME280;2914;42.668;23.346;2023-01-30T13:36:53;94201.06;;;1.59;80.08
5777;BME280;2914;42.668;23.346;2023-01-30T13:39:29;94198.49;;;1.51;80.11
5777;BME280;2914;42.668;23.346;2023-01-30T13:41:59;94188.00;;;1.53;79.93
5777;BME280;2914;42.668;23.346;2023-01-30T13:44:30;94194.20;;;1.65;79.59
5777;BME280;2914;42.668;23.346;2023-01-30T13:47:07;94185.27;;;1.69;84.71
5777;BME280;2914;42.668;23.346;2023-01-30T13:52:24;94184.38;;;1.56;80.64
5777;BME280;2914;42.668;23.346;2023-01-30T13:57:39;94187.22;;;1.65;81.19
5777;BME280;2914;42.668;23.346;2023-01-30T14:03:29;94188.56;;;1.44;80.15
5777;BME280;2914;42.668;23.346;2023-01-30T14:11:55;94181.91;;;1.67;80.48
5777;BME280;2914;42.668;23.346;2023-01-30T14:14:33;94187.29;;;1.71;80.08
5777;BME280;2914;42.668;23.346;2023-01-30T14:17:11;94184.24;;;1.64;79.83
5777;BME280;2914;42.668;23.346;2023-01-30T14:19:46;94191.32;;;1.62;78.92
5777;BME280;2914;42.668;23.346;2023-01-30T14:22:29;94189.17;;;1.62;78.96
5777;BME280;2914;42.668;23.346;2023-01-30T14:40:44;94186.77;;;1.03;81.72
5777;BME280;2914;42.668;23.346;2023-01-30T14:43:50;94183.14;;;1.05;81.54
5777;BME280;2914;42.668;23.346;2023-01-30T14:46:47;94179.89;;;1.16;81.76
5777;BME280;2914;42.668;23.346;2023-01-30T14:52:24;94164.94;;;1.27;80.33
5777;BME280;2914;42.668;23.346;2023-01-30T14:54:53;94155.29;;;1.22;80.75
5777;BME280;2914;42.668;23.346;2023-01-30T14:57:24;94166.08;;;1.15;81.00
5777;BME280;2914;42.668;23.346;2023-01-30T14:59:59;94166.92;;;1.09;81.46
5777;BME280;2914;42.668;23.346;2023-01-30T15:02:32;94155.87;;;0.83;81.67
5777;BME280;2914;42.668;23.346;2023-01-30T15:05:08;94159.42;;;0.82;82.56
5777;BME280;2914;42.668;23.346;2023-01-30T15:07:40;94159.61;;;0.87;83.01
5777;BME280;2914;42.668;23.346;2023-01-30T15:10:20;94158.50;;;0.91;82.47
5777;BME280;2914;42.668;23.346;2023-01-30T15:13:01;94155.42;;;0.91;82.97
5777;BME280;2914;42.668;23.346;2023-01-30T15:15:34;94157.55;;;0.92;82.69
5777;BME280;2914;42.668;23.346;2023-01-30T15:18:19;94154.39;;;1.01;82.39
5777;BME280;2914;42.668;23.346;2023-01-30T15:20:59;94161.83;;;0.86;81.97
5777;BME280;2914;42.668;23.346;2023-01-30T15:23:41;94157.00;;;0.72;82.48
5777;BME280;2914;42.668;23.346;2023-01-30T15:26:17;94157.00;;;0.72;82.74
5777;BME280;2914;42.668;23.346;2023-01-30T15:28:52;94153.94;;;0.58;84.04
5777;BME280;2914;42.668;23.346;2023-01-30T15:31:22;94159.19;;;0.35;84.56
5777;BME280;2914;42.668;23.346;2023-01-30T15:36:34;94152.52;;;0.31;86.11
5777;BME280;2914;42.668;23.346;2023-01-30T15:39:15;94155.15;;;0.08;86.43
5777;BME280;2914;42.668;23.346;2023-01-30T15:41:42;94161.63;;;0.08;87.94
5777;BME280;2914;42.668;23.346;2023-01-30T15:44:23;94159.09;;;0.37;100.00
5777;BME280;2914;42.668;23.346;2023-01-30T15:46:54;94163.72;;;0.31;91.96
5777;BME280;2914;42.668;23.346;2023-01-30T15:49:40;94160.39;;;0.22;87.62
5777;BME280;2914;42.668;23.346;2023-01-30T15:52:13;94160.28;;;0.16;86.68
5777;BME280;2914;42.668;23.346;2023-01-30T15:54:48;94150.23;;;0.03;86.75
5777;BME280;2914;42.668;23.346;2023-01-30T15:57:21;94153.61;;;0.12;90.87
5777;BME280;2914;42.668;23.346;2023-01-30T15:59:57;94142.90;;;0.03;86.81
5777;BME280;2914;42.668;23.346;2023-01-30T16:02:29;94153.66;;;0.11;86.67
5777;BME280;2914;42.668;23.346;2023-01-30T16:07:54;94154.33;;;0.14;85.81
5777;BME280;2914;42.668;23.346;2023-01-30T16:10:48;94160.28;;;0.16;85.59
5777;BME280;2914;42.668;23.346;2023-01-30T16:13:21;94162.11;;;0.07;85.54
5777;BME280;2914;42.668;23.346;2023-01-30T16:15:54;94155.29;;;0.21;85.07
5777;BME280;2914;42.668;23.346;2023-01-30T16:18:28;94147.27;;;0.09;85.24